No particular awareness of the weather is required.    There are no Weather-warnings


Meteo18 Weather Cam more information Meteo18 Weather Cam


Thunder radar more information blitzortung!


Rain radar more information rain snow radar


Visit our other weather sites:

Template documentation
and downloads

And another site



Weather Underground History page Text

Daily Summary for February 24, 2018 Units:  English    Metric   Both
« Previous Day
Next Day »
Daily Weekly Monthly Yearly Custom
  High: Low: Average:
Temperature: TemperatureC °F -2.0 °F 0.8 °F
Dew Point: DewpointC °F -5.7 °F -3.2 °F
Humidity: Humidity % 64 % 74 %
Wind Speed: WindSpeedKMH mph 0.0 mph 8.2 mph
Wind Gust: WindSpeedGustKMH mph - -
Wind:- - ENE
Pressure: PressurehPa in 1011.7 in -
Precipitation: 0.0 in    
Historical Graphs
 
 
Tabular Data for February 24, 2018
Time Temperature Dew Point Pressure Wind Wind Speed Wind Gust Humidity Rainfall Rate (Hourly)
TemperatureC °F DewpointC °F PressurehPa in Calm     Humidity % HourlyPrecipMM in
00:01 0.6 °F -2.8 °F 1012.4 in ENE 4.7 mph 8.0 mph 78 % 0.0 in
00:07 0.6 °F -2.8 °F 1012.1 in ENE 4.7 mph 8.0 mph 78 % 0.0 in
00:13 0.6 °F -2.8 °F 1012.1 in East 4.7 mph 6.4 mph 78 % 0.0 in
00:19 0.5 °F -2.9 °F 1012.1 in NE 1.4 mph 11.3 mph 78 % 0.0 in
00:25 0.5 °F -2.9 °F 1012.1 in ENE 3.2 mph 4.8 mph 78 % 0.0 in
00:31 0.4 °F -3.0 °F 1012.1 in ENE 1.4 mph 9.7 mph 78 % 0.0 in
00:37 0.4 °F -3.0 °F 1012.1 in NE 3.2 mph 9.7 mph 78 % 0.0 in
00:43 0.4 °F -3.0 °F 1012.1 in ENE 11.1 mph 14.5 mph 78 % 0.0 in
00:49 0.4 °F -3.0 °F 1011.7 in ENE 6.4 mph 8.0 mph 78 % 0.0 in
00:55 0.4 °F -3.3 °F 1011.7 in East 3.2 mph 12.9 mph 76 % 0.0 in
01:01 0.5 °F -3.4 °F 1011.7 in ENE 14.3 mph 14.5 mph 75 % 0.0 in
01:07 0.4 °F -3.7 °F 1011.7 in East 7.9 mph 11.3 mph 74 % 0.0 in
01:13 0.4 °F -3.7 °F 1011.7 in ENE 11.1 mph 16.1 mph 74 % 0.0 in
01:19 0.4 °F -3.7 °F 1011.7 in ENE 6.4 mph 14.5 mph 74 % 0.0 in
01:25 0.4 °F -3.7 °F 1012.1 in East 4.7 mph 9.7 mph 74 % 0.0 in
01:31 0.4 °F -3.7 °F 1012.1 in ENE 7.9 mph 12.9 mph 74 % 0.0 in
01:37 0.3 °F -3.8 °F 1012.1 in ENE 7.9 mph 11.3 mph 74 % 0.0 in
01:43 0.3 °F -3.8 °F 1012.1 in ENE 9.7 mph 14.5 mph 74 % 0.0 in
01:49 0.3 °F -3.8 °F 1012.1 in East 6.4 mph 14.5 mph 74 % 0.0 in
01:55 0.2 °F -3.9 °F 1012.1 in East 13.0 mph 16.1 mph 74 % 0.0 in
02:01 0.2 °F -3.9 °F 1012.1 in ENE 4.7 mph 14.5 mph 74 % 0.0 in
02:07 0.2 °F -3.9 °F 1012.4 in ENE 11.1 mph 14.5 mph 74 % 0.0 in
02:13 0.2 °F -3.7 °F 1012.1 in ENE 6.4 mph 9.7 mph 75 % 0.0 in
02:19 0.1 °F -3.8 °F 1012.1 in ENE 6.4 mph 9.7 mph 75 % 0.0 in
02:25 0.1 °F -4.0 °F 1012.1 in ENE 6.4 mph 12.9 mph 74 % 0.0 in
02:31 0.1 °F -4.0 °F 1012.1 in ENE 7.9 mph 9.7 mph 74 % 0.0 in
02:37 0.0 °F -4.1 °F 1012.1 in ENE 6.4 mph 12.9 mph 74 % 0.0 in
02:43 0.0 °F -3.9 °F 1011.7 in ENE 7.9 mph 11.3 mph 75 % 0.0 in
02:49 -0.1 °F -3.8 °F 1011.7 in East 1.4 mph 8.0 mph 76 % 0.0 in
02:55 -0.2 °F -3.7 °F 1012.1 in NE 3.2 mph 6.4 mph 77 % 0.0 in
03:01 -0.2 °F -3.9 °F 1012.1 in ENE 9.7 mph 12.9 mph 76 % 0.0 in
03:07 -0.2 °F -4.1 °F 1012.1 in ENE 13.0 mph 16.1 mph 75 % 0.0 in
03:13 -0.2 °F -3.9 °F 1012.1 in NE 3.2 mph 14.5 mph 76 % 0.0 in
03:19 -0.3 °F -3.8 °F 1012.1 in ENE 3.2 mph 8.0 mph 77 % 0.0 in
03:25 -0.3 °F -3.8 °F 1012.1 in ENE 7.9 mph 8.0 mph 77 % 0.0 in
03:31 -0.3 °F -3.8 °F 1012.1 in ENE 4.7 mph 8.0 mph 77 % 0.0 in
03:37 -0.4 °F -3.9 °F 1012.1 in ENE 4.7 mph 8.0 mph 77 % 0.0 in
03:43 -0.6 °F -4.0 °F 1012.1 in NE 1.4 mph 3.2 mph 78 % 0.0 in
03:49 -0.7 °F -4.1 °F 1012.1 in NE 3.2 mph 6.4 mph 78 % 0.0 in
03:55 -0.7 °F -4.1 °F 1012.1 in ENE 6.4 mph 6.4 mph 78 % 0.0 in
04:01 -0.8 °F -4.2 °F 1012.1 in ENE 1.4 mph 4.8 mph 78 % 0.0 in
04:07 -0.8 °F -4.0 °F 1012.1 in NE 1.4 mph 4.8 mph 79 % 0.0 in
04:13 -0.9 °F -4.1 °F 1012.1 in NE 6.4 mph 8.0 mph 79 % 0.0 in
04:19 -0.9 °F -4.1 °F 1012.1 in NE 3.2 mph 8.0 mph 79 % 0.0 in
04:25 -1.1 °F -4.3 °F 1011.7 in NE 6.4 mph 8.0 mph 79 % 0.0 in
04:31 -1.1 °F -4.3 °F 1012.1 in North 3.2 mph 8.0 mph 79 % 0.0 in
04:37 -1.2 °F -4.2 °F 1012.1 in NNE 1.4 mph 3.2 mph 80 % 0.0 in
04:43 -1.2 °F -4.2 °F 1012.1 in NE 3.2 mph 4.8 mph 80 % 0.0 in
04:49 -1.3 °F -4.3 °F 1012.1 in NNE 4.7 mph 6.4 mph 80 % 0.0 in
04:55 -1.2 °F -4.2 °F 1012.1 in NE 4.7 mph 9.7 mph 80 % 0.0 in
05:01 -1.3 °F -4.3 °F 1012.1 in NE 7.9 mph 8.0 mph 80 % 0.0 in
05:07 -1.3 °F -4.3 °F 1012.1 in NE 4.7 mph 8.0 mph 80 % 0.0 in
05:13 -1.3 °F -4.3 °F 1012.1 in NE 4.7 mph 8.0 mph 80 % 0.0 in
05:19 -1.3 °F -4.3 °F 1011.7 in NE 6.4 mph 9.7 mph 80 % 0.0 in
05:25 -1.4 °F -4.4 °F 1011.7 in NE 4.7 mph 6.4 mph 80 % 0.0 in
05:31 -1.4 °F -4.4 °F 1011.7 in NNE 6.4 mph 6.4 mph 80 % 0.0 in
05:37 -1.4 °F -4.4 °F 1011.7 in NNE 4.7 mph 6.4 mph 80 % 0.0 in
05:43 -1.5 °F -4.3 °F 1011.7 in NW 1.4 mph 8.0 mph 81 % 0.0 in
05:49 -1.6 °F -4.3 °F 1011.7 in NNE 4.7 mph 11.3 mph 82 % 0.0 in
05:56 -1.4 °F -4.2 °F 1011.7 in NNE 6.4 mph 9.7 mph 81 % 0.0 in
06:02 -1.4 °F -4.2 °F 1011.7 in NNE 7.9 mph 12.9 mph 81 % 0.0 in
06:08 -1.5 °F -4.3 °F 1011.7 in NE 4.7 mph 9.7 mph 81 % 0.0 in
06:14 -1.3 °F -4.1 °F 1011.7 in NE 9.7 mph 14.5 mph 81 % 0.0 in
06:20 -1.2 °F -4.2 °F 1011.7 in NE 9.7 mph 14.5 mph 80 % 0.0 in
06:26 -1.2 °F -4.2 °F 1011.7 in NE 6.4 mph 14.5 mph 80 % 0.0 in
06:32 -1.2 °F -4.2 °F 1011.7 in NNE 16.3 mph 17.7 mph 80 % 0.0 in
06:38 -1.2 °F -4.2 °F 1011.7 in NE 14.3 mph 16.1 mph 80 % 0.0 in
06:44 -1.3 °F -4.3 °F 1012.1 in NNE 6.4 mph 11.3 mph 80 % 0.0 in
06:50 -1.4 °F -4.2 °F 1012.1 in NNE 7.9 mph 12.9 mph 81 % 0.0 in
06:56 -1.4 °F -4.2 °F 1012.1 in Calm   12.9 mph 81 % 0.0 in
07:02 -1.6 °F -4.3 °F 1012.1 in NE 13.0 mph 13.0 mph 82 % 0.0 in
07:08 -1.6 °F -4.3 °F 1012.1 in North 6.4 mph 11.3 mph 82 % 0.0 in
07:14 -1.7 °F -4.4 °F 1012.1 in NW 6.4 mph 9.7 mph 82 % 0.0 in
07:20 -1.8 °F -4.3 °F 1012.1 in NNE 3.2 mph 9.7 mph 83 % 0.0 in
07:26 -1.8 °F -4.3 °F 1012.1 in NE 4.7 mph 9.7 mph 83 % 0.0 in
07:32 -1.8 °F -4.3 °F 1012.1 in NNE 9.7 mph 16.1 mph 83 % 0.0 in
07:38 -1.9 °F -4.4 °F 1012.1 in NNE 1.4 mph 8.0 mph 83 % 0.0 in
07:44 -1.9 °F -4.4 °F 1012.1 in NNW 1.4 mph 6.4 mph 83 % 0.0 in
07:50 -2.0 °F -4.3 °F 1012.1 in NE 1.4 mph 9.7 mph 84 % 0.0 in
07:56 -1.9 °F -4.2 °F 1012.4 in NE 7.9 mph 11.3 mph 84 % 0.0 in
08:02 -2.0 °F -4.3 °F 1012.4 in NNE 3.2 mph 11.3 mph 84 % 0.0 in
08:08 -2.0 °F -4.3 °F 1012.1 in NE 7.9 mph 12.9 mph 84 % 0.0 in
08:14 -1.9 °F -4.2 °F 1012.4 in NE 6.4 mph 8.0 mph 84 % 0.0 in
08:20 -1.9 °F -4.2 °F 1012.4 in NNE 4.7 mph 9.7 mph 84 % 0.0 in
08:26 -1.8 °F -4.1 °F 1012.4 in NNE 9.7 mph 11.3 mph 84 % 0.0 in
08:32 -1.8 °F -4.3 °F 1012.8 in NNE 7.9 mph 16.1 mph 83 % 0.0 in
08:38 -1.7 °F -4.2 °F 1012.8 in NE 14.3 mph 16.1 mph 83 % 0.0 in
08:44 -1.6 °F -4.3 °F 1012.8 in NE 7.9 mph 17.7 mph 82 % 0.0 in
08:50 -1.5 °F -4.2 °F 1012.8 in NE 16.3 mph 19.3 mph 82 % 0.0 in
08:56 -1.4 °F -4.2 °F 1012.8 in North 3.2 mph 17.7 mph 81 % 0.0 in
09:02 -1.4 °F -4.1 °F 1012.8 in NNE 3.2 mph 12.9 mph 82 % 0.0 in
09:08 -1.4 °F -4.2 °F 1012.8 in NE 6.4 mph 16.1 mph 81 % 0.0 in
09:14 -1.3 °F -4.3 °F 1012.8 in NNE 14.3 mph 16.1 mph 80 % 0.0 in
09:20 -1.3 °F -4.3 °F 1012.8 in NNE 9.7 mph 20.9 mph 80 % 0.0 in
09:26 -1.2 °F -4.2 °F 1012.4 in NE 11.1 mph 20.9 mph 80 % 0.0 in
09:32 -1.1 °F -4.3 °F 1012.8 in NE 16.3 mph 25.7 mph 79 % 0.0 in
09:38 -1.1 °F -4.3 °F 1012.8 in NE 14.3 mph 17.7 mph 79 % 0.0 in
09:44 -0.9 °F -4.1 °F 1012.8 in NE 9.7 mph 22.5 mph 79 % 0.0 in
09:50 -0.8 °F -4.2 °F 1012.4 in NNE 16.3 mph 20.9 mph 78 % 0.0 in
09:56 -0.8 °F -4.2 °F 1012.4 in ENE 25.9 mph 25.9 mph 78 % 0.0 in
09:58 -0.8 °F -4.2 °F 1012.4 in NE 14.3 mph 20.9 mph 78 % 0.0 in
10:02 -0.7 °F -4.2 °F 1012.4 in NNE 11.1 mph 24.1 mph 77 % 0.0 in
10:08 -0.7 °F -4.2 °F 1012.4 in NE 11.1 mph 27.4 mph 77 % 0.0 in
10:14 -0.5 °F -4.0 °F 1012.4 in NNE 14.3 mph 20.9 mph 77 % 0.0 in
10:20 -0.3 °F -3.8 °F 1012.4 in NE 13.0 mph 17.7 mph 77 % 0.0 in
10:26 -0.3 °F -4.0 °F 1012.4 in NE 7.9 mph 20.9 mph 76 % 0.0 in
10:32 -0.1 °F -3.8 °F 1012.4 in East 6.4 mph 17.7 mph 76 % 0.0 in
10:38 0.0 °F -3.7 °F 1012.4 in NE 7.9 mph 17.7 mph 76 % 0.0 in
10:44 0.2 °F -3.5 °F 1012.4 in NE 13.0 mph 14.5 mph 76 % 0.0 in
10:50 0.2 °F -3.5 °F 1012.4 in NE 14.3 mph 20.9 mph 76 % 0.0 in
10:56 0.3 °F -3.4 °F 1012.4 in ENE 6.4 mph 20.9 mph 76 % 0.0 in
11:02 0.3 °F -3.6 °F 1012.4 in ENE 9.7 mph 22.5 mph 75 % 0.0 in
11:08 0.4 °F -3.5 °F 1012.4 in NE 16.3 mph 24.1 mph 75 % 0.0 in
11:14 0.6 °F -3.3 °F 1012.4 in NE 7.9 mph 17.7 mph 75 % 0.0 in
11:20 0.7 °F -3.2 °F 1012.4 in NE 16.3 mph 20.9 mph 75 % 0.0 in
11:26 0.8 °F -3.1 °F 1012.4 in NE 14.3 mph 17.7 mph 75 % 0.0 in
11:32 0.7 °F -3.6 °F 1012.4 in NE 11.1 mph 19.3 mph 73 % 0.0 in
11:38 0.9 °F -3.0 °F 1012.8 in ENE 11.1 mph 11.3 mph 75 % 0.0 in
11:44 0.8 °F -3.3 °F 1012.8 in ENE 1.4 mph 11.3 mph 74 % 0.0 in
11:50 1.3 °F -2.8 °F 1012.8 in ENE 3.2 mph 11.3 mph 74 % 0.0 in
11:56 1.4 °F -2.9 °F 1012.8 in ENE 4.7 mph 12.9 mph 73 % 0.0 in
12:02 1.3 °F -2.8 °F 1012.8 in NE 1.4 mph 20.9 mph 74 % 0.0 in
12:08 1.5 °F -2.8 °F 1012.8 in ENE 4.7 mph 11.3 mph 73 % 0.0 in
12:14 1.6 °F -2.7 °F 1012.8 in ENE 7.9 mph 14.5 mph 73 % 0.0 in
12:20 1.8 °F -2.7 °F 1012.8 in NE 3.2 mph 9.7 mph 72 % 0.0 in
12:26 2.1 °F -2.0 °F 1012.8 in NNE 4.7 mph 11.3 mph 74 % 0.0 in
12:32 2.2 °F -2.1 °F 1012.8 in NE 3.2 mph 11.3 mph 73 % 0.0 in
12:38 2.6 °F -1.9 °F 1012.8 in ENE 9.7 mph 16.1 mph 72 % 0.0 in
12:44 2.6 °F -2.3 °F 1012.8 in ESE 6.4 mph 16.1 mph 70 % 0.0 in
12:50 2.6 °F -2.1 °F 1012.8 in ENE 16.3 mph 17.7 mph 71 % 0.0 in
12:56 2.4 °F -2.5 °F 1012.8 in East 9.7 mph 17.7 mph 70 % 0.0 in
13:02 2.7 °F -2.2 °F 1012.8 in NNE 7.9 mph 24.1 mph 70 % 0.0 in
13:08 2.7 °F -2.0 °F 1012.8 in ENE 9.7 mph 20.9 mph 71 % 0.0 in
13:14 2.8 °F -2.3 °F 1012.4 in NE 4.7 mph 17.7 mph 69 % 0.0 in
13:20 2.7 °F -2.2 °F 1012.4 in NE 7.9 mph 12.9 mph 70 % 0.0 in
13:26 3.0 °F -1.7 °F 1012.4 in NE 6.4 mph 14.5 mph 71 % 0.0 in
13:32 3.1 °F -2.0 °F 1012.4 in ENE 16.3 mph 19.3 mph 69 % 0.0 in
13:38 2.7 °F -2.2 °F 1012.4 in NNE 7.9 mph 17.7 mph 70 % 0.0 in
13:44 2.9 °F -2.0 °F 1012.4 in NNE 16.3 mph 16.3 mph 70 % 0.0 in
13:50 3.1 °F -2.0 °F 1012.4 in NE 19.5 mph 24.1 mph 69 % 0.0 in
13:56 3.3 °F -1.8 °F 1012.4 in NE 16.3 mph 27.4 mph 69 % 0.0 in
14:02 3.2 °F -2.3 °F 1012.4 in East 9.7 mph 16.1 mph 67 % 0.0 in
14:08 3.2 °F -2.1 °F 1012.4 in NE 17.7 mph 20.9 mph 68 % 0.0 in
14:14 3.2 °F -2.1 °F 1012.4 in East 6.4 mph 16.1 mph 68 % 0.0 in
14:20 3.3 °F -1.8 °F 1012.4 in NE 16.3 mph 19.3 mph 69 % 0.0 in
14:26 3.2 °F -2.1 °F 1012.4 in NNE 6.4 mph 20.9 mph 68 % 0.0 in
14:32 3.1 °F -1.8 °F 1012.4 in NNE 6.4 mph 25.7 mph 70 % 0.0 in
14:38 3.2 °F -1.6 °F 1012.4 in NNE 4.7 mph 12.9 mph 71 % 0.0 in
14:44 3.4 °F -1.7 °F 1012.4 in NNE 7.9 mph 17.7 mph 69 % 0.0 in
14:50 3.4 °F -1.6 °F 1012.4 in NE 4.7 mph 14.5 mph 70 % 0.0 in
14:56 3.3 °F -1.8 °F 1012.4 in NE 9.7 mph 27.4 mph 69 % 0.0 in
15:02 3.2 °F -1.7 °F 1012.4 in NNE 9.7 mph 12.9 mph 70 % 0.0 in
15:08 3.4 °F -1.7 °F 1012.4 in NE 13.0 mph 20.9 mph 69 % 0.0 in
15:14 3.2 °F -2.3 °F 1012.4 in NNE 14.3 mph 25.7 mph 67 % 0.0 in
15:20 3.2 °F -1.9 °F 1012.4 in NE 4.7 mph 17.7 mph 69 % 0.0 in
15:26 3.4 °F -1.6 °F 1012.4 in NE 25.9 mph 25.9 mph 70 % 0.0 in
15:32 3.4 °F -1.7 °F 1012.4 in NNW 14.3 mph 27.4 mph 69 % 0.0 in
15:38 3.3 °F -2.0 °F 1012.4 in NNE 11.1 mph 19.3 mph 68 % 0.0 in
15:44 3.4 °F -1.9 °F 1012.4 in NNE 17.7 mph 27.4 mph 68 % 0.0 in
15:50 3.5 °F -1.8 °F 1012.4 in NE 20.9 mph 22.5 mph 68 % 0.0 in
15:56 3.4 °F -2.1 °F 1012.4 in NE 11.1 mph 24.1 mph 67 % 0.0 in
16:02 3.5 °F -1.8 °F 1012.4 in NE 6.4 mph 19.3 mph 68 % 0.0 in
16:08 3.8 °F -1.8 °F 1012.8 in NNE 9.7 mph 22.5 mph 67 % 0.0 in
16:14 3.7 °F -1.9 °F 1012.8 in NE 3.2 mph 19.3 mph 67 % 0.0 in
16:20 3.6 °F -2.0 °F 1012.8 in NE 22.7 mph 24.1 mph 67 % 0.0 in
16:26 3.5 °F -1.8 °F 1012.8 in ENE 4.7 mph 17.7 mph 68 % 0.0 in
16:32 3.6 °F -2.0 °F 1012.8 in East 14.3 mph 20.9 mph 67 % 0.0 in
16:38 3.5 °F -1.8 °F 1012.8 in NE 9.7 mph 16.1 mph 68 % 0.0 in
16:44 3.4 °F -2.1 °F 1012.8 in NNE 17.7 mph 22.5 mph 67 % 0.0 in
16:50 3.4 °F -2.1 °F 1012.8 in NE 6.4 mph 14.5 mph 67 % 0.0 in
16:56 3.4 °F -1.9 °F 1012.8 in NNE 13.0 mph 24.1 mph 68 % 0.0 in
17:02 3.4 °F -2.1 °F 1012.8 in NE 16.3 mph 24.1 mph 67 % 0.0 in
17:08 3.4 °F -1.9 °F 1012.8 in North 6.4 mph 22.5 mph 68 % 0.0 in
17:14 3.3 °F -2.0 °F 1012.8 in NNE 13.0 mph 22.5 mph 68 % 0.0 in
17:20 3.3 °F -2.2 °F 1013.1 in NE 6.4 mph 22.5 mph 67 % 0.0 in
17:27 3.3 °F -2.0 °F 1013.1 in NNE 16.3 mph 19.3 mph 68 % 0.0 in
17:33 3.3 °F -2.0 °F 1013.1 in NE 14.3 mph 16.1 mph 68 % 0.0 in
17:39 3.3 °F -2.0 °F 1013.1 in NNE 11.1 mph 22.5 mph 68 % 0.0 in
17:45 3.3 °F -1.8 °F 1013.1 in NNE 6.4 mph 14.5 mph 69 % 0.0 in
17:51 3.3 °F -2.0 °F 1013.4 in NE 9.7 mph 17.7 mph 68 % 0.0 in
17:57 3.3 °F -2.0 °F 1013.1 in North 6.4 mph 20.9 mph 68 % 0.0 in
18:03 3.3 °F -1.8 °F 1013.4 in NNE 13.0 mph 19.3 mph 69 % 0.0 in
18:09 3.1 °F -2.0 °F 1013.4 in NNE 7.9 mph 14.5 mph 69 % 0.0 in
18:15 3.0 °F -1.9 °F 1013.4 in North 4.7 mph 9.7 mph 70 % 0.0 in
18:21 2.8 °F -2.1 °F 1013.4 in NE 7.9 mph 12.9 mph 70 % 0.0 in
18:27 2.7 °F -2.2 °F 1013.4 in North 6.4 mph 11.3 mph 70 % 0.0 in
18:33 2.6 °F -2.1 °F 1013.4 in NE 1.4 mph 9.7 mph 71 % 0.0 in
18:39 2.4 °F -2.1 °F 1013.4 in NW 1.4 mph 6.4 mph 72 % 0.0 in
18:45 2.3 °F -2.0 °F 1013.4 in NNW 3.2 mph 8.0 mph 73 % 0.0 in
18:51 2.2 °F -2.1 °F 1013.4 in North 4.7 mph 4.8 mph 73 % 0.0 in
18:57 2.0 °F -2.3 °F 1013.4 in NNE 3.2 mph 6.4 mph 73 % 0.0 in
19:03 1.8 °F -2.3 °F 1013.8 in North 1.4 mph 8.0 mph 74 % 0.0 in
19:09 1.7 °F -2.4 °F 1013.8 in North 4.7 mph 4.8 mph 74 % 0.0 in
19:15 1.5 °F -2.4 °F 1013.8 in NE 1.4 mph 8.0 mph 75 % 0.0 in
19:21 1.4 °F -2.5 °F 1013.8 in NNE 3.2 mph 6.4 mph 75 % 0.0 in
19:27 1.3 °F -2.5 °F 1013.8 in Calm   3.2 mph 76 % 0.0 in
19:33 1.2 °F -2.6 °F 1013.8 in North 4.7 mph 4.8 mph 76 % 0.0 in
19:39 1.2 °F -2.6 °F 1013.8 in Calm   3.2 mph 76 % 0.0 in
19:45 1.0 °F -2.6 °F 1013.8 in NE 4.7 mph 4.8 mph 77 % 0.0 in
19:51 1.0 °F -2.6 °F 1013.8 in NNE 3.2 mph 8.0 mph 77 % 0.0 in
19:57 1.1 °F -2.7 °F 1013.8 in NNW 6.4 mph 8.0 mph 76 % 0.0 in
20:03 1.1 °F -2.7 °F 1013.8 in North 6.4 mph 6.4 mph 76 % 0.0 in
20:09 1.2 °F -2.6 °F 1013.8 in NNE 4.7 mph 9.7 mph 76 % 0.0 in
20:15 1.1 °F -2.7 °F 1013.8 in NE 6.4 mph 9.7 mph 76 % 0.0 in
20:21 1.2 °F -2.6 °F 1013.8 in ENE 1.4 mph 8.0 mph 76 % 0.0 in
20:27 1.1 °F -2.7 °F 1013.8 in NNE 3.2 mph 6.4 mph 76 % 0.0 in
20:33 1.2 °F -2.6 °F 1013.8 in NNE 9.7 mph 9.7 mph 76 % 0.0 in
20:39 1.2 °F -2.6 °F 1013.8 in North 3.2 mph 14.5 mph 76 % 0.0 in
20:45 1.3 °F -2.5 °F 1013.8 in NE 7.9 mph 14.5 mph 76 % 0.0 in
20:51 1.3 °F -2.6 °F 1013.8 in NE 9.7 mph 9.7 mph 75 % 0.0 in
20:57 1.4 °F -2.5 °F 1013.8 in NNE 9.7 mph 9.7 mph 75 % 0.0 in
21:03 1.3 °F -2.6 °F 1013.8 in NNE 7.9 mph 11.3 mph 75 % 0.0 in
21:09 1.3 °F -2.5 °F 1013.8 in North 1.4 mph 11.3 mph 76 % 0.0 in
21:15 1.3 °F -2.6 °F 1014.1 in NNE 1.4 mph 11.3 mph 75 % 0.0 in
21:21 1.4 °F -2.5 °F 1014.1 in NNE 6.4 mph 12.9 mph 75 % 0.0 in
21:27 1.6 °F -2.5 °F 1013.8 in NNE 14.3 mph 14.5 mph 74 % 0.0 in
21:33 1.6 °F -2.7 °F 1013.8 in NE 9.7 mph 12.9 mph 73 % 0.0 in
21:39 1.7 °F -2.8 °F 1014.1 in NNE 13.0 mph 17.7 mph 72 % 0.0 in
21:45 1.6 °F -3.1 °F 1014.1 in NE 13.0 mph 19.3 mph 71 % 0.0 in
21:51 1.5 °F -3.0 °F 1014.1 in NE 13.0 mph 14.5 mph 72 % 0.0 in
21:57 1.5 °F -2.8 °F 1014.1 in ENE 4.7 mph 19.3 mph 73 % 0.0 in
22:05 1.4 °F -2.9 °F 1014.1 in ENE 11.1 mph 17.7 mph 73 % 0.0 in
22:11 1.2 °F -3.3 °F 1014.1 in NE 14.3 mph 20.9 mph 72 % 0.0 in
22:17 1.1 °F -3.4 °F 1014.1 in ENE 9.7 mph 16.1 mph 72 % 0.0 in
22:23 1.0 °F -3.7 °F 1014.1 in ENE 17.7 mph 17.7 mph 71 % 0.0 in
22:29 0.9 °F -4.0 °F 1014.1 in NE 9.7 mph 17.7 mph 70 % 0.0 in
22:33 0.9 °F -4.0 °F 1014.1 in NE 13.0 mph 17.7 mph 70 % 0.0 in
22:39 0.8 °F -4.0 °F 1014.1 in NE 17.7 mph 17.7 mph 70 % 0.0 in
22:45 0.8 °F -4.4 °F 1014.1 in NE 7.9 mph 16.1 mph 68 % 0.0 in
22:49 0.8 °F -4.6 °F 1014.4 in NE 6.4 mph 19.3 mph 67 % 0.0 in
22:55 0.7 °F -4.7 °F 1014.4 in NE 11.1 mph 16.1 mph 67 % 0.0 in
23:01 0.6 °F -4.8 °F 1014.4 in ENE 7.9 mph 12.9 mph 67 % 0.0 in
23:07 0.6 °F -4.8 °F 1014.4 in NE 9.7 mph 12.9 mph 67 % 0.0 in
23:13 0.5 °F -4.9 °F 1014.4 in NE 13.0 mph 14.5 mph 67 % 0.0 in
23:19 0.5 °F -5.1 °F 1014.4 in NE 4.7 mph 16.1 mph 66 % 0.0 in
23:25 0.4 °F -5.2 °F 1014.4 in NE 11.1 mph 16.1 mph 66 % 0.0 in
23:31 0.4 °F -5.4 °F 1014.4 in NE 6.4 mph 16.1 mph 65 % 0.0 in
23:37 0.4 °F -5.4 °F 1014.4 in ENE 7.9 mph 14.5 mph 65 % 0.0 in
23:43 0.3 °F -5.5 °F 1014.4 in NNE 11.1 mph 17.7 mph 65 % 0.0 in
23:49 0.3 °F -5.7 °F 1014.4 in NE 13.0 mph 20.9 mph 64 % 0.0 in
23:55 0.3 °F -5.5 °F 1014.4 in NE 16.3 mph 17.7 mph 65 % 0.0 in
Meteo18
Compliments of Weather Underground - 4 mb

Script developed by  Jim McMurry - jmcmurry@mwt.net Adapted for the template by  Wim van der Kuil - Leuven-Template.eu

You find our weather info also at:

European Weather Network

Weather Underground

Equipment we use:

Weather-station
Davis Vue

Weather-program
Meteobridge

Weather-server
Raspberry PI 2 B+

Provider
1 and 1

Davis Vue

Meteobridge

Raspberry PI 2 B+

1 and 1